Fort Wayne, IN (46801)

12:09 PM EST on February 09, 2016 (GMT -0500)
Hillegas Road, Ft.Wayne, IN | | Change Station
CLOSE
Current Station
Personal Weather Station
Location: Fort Wayne, IN
Elevation: 823 ft
Nearby Weather Stations

Elev 823 ft 41.10 °N, 85.19 °W | Updated 11 minutes ago

Overcast
Overcast
26.4 °F
Feels Like 26 °F
N
2.7
Wind Variable Wind from SW

Today
High -- | Low -- °F
--% Chance of Precip.
Yesterday
High -- | Low -- °F
Precip. -- in
Pressure 29.73 in
Visibility 9.0 miles
Clouds Overcast 1200 ft
Windchill 26 °F
Dew Point 25 °F
Humidity 93%
Rainfall 0.00 in
Snow Depth Not available.
7:43 AM 6:07 PM
New Moon, 2% visible
METAR KFWA 091654Z 26014KT 9SM -SN OVC012 M03/M07 A2970 RMK AO2 SLP066 T10281067 PNO $
Pressure 29.73 in
Visibility 9.0 miles
Clouds Overcast 1200 ft
Windchill 26 °F
Dew Point 25 °F
Humidity 93%
Rainfall 0.00 in
Snow Depth Not available.
7:43 AM 6:07 PM
New Moon, 2% visible
METAR KFWA 091654Z 26014KT 9SM -SN OVC012 M03/M07 A2970 RMK AO2 SLP066 T10281067 PNO $

10-Day Weather Forecast

Almanac

Astronomy

Feb. 09, 2016 Rise Set
Actual Time
Civil Twilight
Nautical Twilight
Astronomical Twilight
Moon
Length of Visible Light
Length of Day
Tomorrow will be .
, % of the Moon is Illuminated

Today's Extremes

State Highs State Lows

Community

WunderPhotos

Upload Photos

1,891,631 photos uploaded!

WunderBlog® & News

Nearby

Air Quality

  Air Quality AQ Index Pollutant
Not available.

Snow Depth

Station Depth Elevation

Earthquake Activity

City Distance Mag. Time & Date
Minimum magnitude displayed is 2.5.

Coastal Water Temperatures

Place Temperature

Stations

Nearby Weather Stations

Station Location Temp. Windchill Dew Point Humidity Wind Precip. Elev Updated Type
                   

Watches & Warnings

There are currently no watches in effect.